ADDS METAR Data INFO
IDs: Format: Raw Decoded Include TAF

Data at: 1738 UTC 25 Feb 2018

KGCD 251715Z AUTO 19018G23KT 10SM OVC049 00/M06 A2999 RMK AO2 T00001056
KGCD 251655Z AUTO 19016G21KT 10SM OVC047 00/M05 A3000 RMK AO2 T00001054
KGCD 251635Z AUTO 18011G17KT 10SM OVC045 00/M06 A3001 RMK AO2 T10021056
KGCD 251615Z AUTO 19013G18KT 10SM -SN SCT042 OVC047 00/M06 A3003 RMK AO2 T10051057
KGCD 251555Z AUTO 19017G22KT 10SM SCT034 SCT040 OVC060 M01/M06 A3004 RMK AO2 T10061060
KGCD 251535Z AUTO 19017G20KT 10SM SCT060 OVC065 M01/M06 A3003 RMK AO2 T10061062
KGCD 251515Z AUTO 19016G22KT 10SM SCT039 SCT048 OVC060 M01/M06 A3003 RMK AO2 T10081064
KGCD 251455Z AUTO 19014G20KT 10SM SCT042 OVC048 M01/M06 A3003 RMK AO2 T10111065
KGCD 251435Z AUTO 20015G20KT 10SM OVC044 M01/M06 A3003 RMK AO2 T10121065
KGCD 251415Z AUTO 18017G20KT 10SM OVC048 M01/M07 A3003 RMK AO2 T10121067
KGCD 251355Z AUTO 20010G18KT 10SM SCT050 BKN060 BKN070 M01/M06 A3005 RMK AO2 T10061065
KGCD 251335Z AUTO 19015G20KT 10SM SCT032 SCT045 OVC060 M01/M07 A3004 RMK AO2 T10071066
KGCD 251315Z AUTO 21010KT 10SM SCT040 SCT046 BKN060 M01/M06 A3005 RMK AO2 T10061065
KGCD 251255Z AUTO 20012G18KT 10SM SCT041 SCT060 BKN100 M01/M06 A3005 RMK AO2 T10071065
KGCD 251235Z AUTO 21012G17KT 10SM SCT041 BKN060 BKN100 M01/M07 A3005 RMK AO2 T10101066
KGCD 251215Z AUTO 20011KT 10SM SCT043 OVC060 M01/M07 A3006 RMK AO2 T10131068
KGCD 251155Z AUTO 19015G19KT 10SM OVC060 M01/M07 A3005 RMK AO2 70003 T10121067 11012 21027
KGCD 251135Z AUTO 20014G17KT 10SM BKN060 OVC075 M01/M07 A3006 RMK AO2 T10131066
KGCD 251115Z AUTO 19014G19KT 10SM SCT075 BKN095 M01/M07 A3006 RMK AO2 T10131067
KGCD 251055Z AUTO 20011G19KT 10SM SCT095 M02/M07 A3006 RMK AO2 T10161070
KGCD 251035Z AUTO 20010G17KT 10SM BKN037 BKN043 M02/M07 A3006 RMK AO2 T10171070
KGCD 251015Z AUTO 19012G18KT 10SM OVC038 M01/M07 A3008 RMK AO2 T10151066
KGCD 250955Z AUTO 21010KT 10SM OVC040 M02/M07 A3008 RMK AO2 T10171067
KGCD 250935Z AUTO 20010KT 10SM OVC040 M02/M07 A3008 RMK AO2 T10161070
KGCD 250915Z AUTO 20008KT 10SM SCT044 M02/M08 A3009 RMK AO2 T10221076
KGCD 250855Z AUTO 21009KT 10SM CLR M02/M08 A3009 RMK AO2 T10201078
KGCD 250835Z AUTO 21008KT 10SM CLR M02/M08 A3009 RMK AO2 T10221080
KGCD 250815Z AUTO 20005KT 10SM SCT038 M03/M08 A3010 RMK AO2 T10261078
KGCD 250755Z AUTO 25004KT 10SM OVC038 M02/M07 A3011 RMK AO2 T10201073 400181048
KGCD 250735Z AUTO 23005KT 10SM OVC038 M01/M07 A3011 RMK AO2 T10131069
KGCD 250715Z AUTO 25005KT 10SM OVC040 M01/M07 A3012 RMK AO2 T10151069
KGCD 250655Z AUTO 25004KT 10SM OVC038 M02/M07 A3012 RMK AO2 T10161068
KGCD 250635Z AUTO 23003KT 10SM BKN040 BKN046 M02/M07 A3012 RMK AO2 T10221068
KGCD 250615Z AUTO 24004KT 10SM SCT042 BKN048 M02/M07 A3011 RMK AO2 T10201070
KGCD 250555Z AUTO 26005KT 10SM OVC050 M02/M07 A3011 RMK AO2 T10241071 10000 21033
KGCD 250535Z AUTO 00000KT 10SM OVC050 M02/M07 A3011 RMK AO2 T10221072
KGCD 250515Z AUTO 24003KT 10SM BKN046 M03/M07 A3011 RMK AO2 T10261074
KGCD 250455Z AUTO 23004KT 10SM SCT046 M03/M08 A3011 RMK AO2 T10301077
KGCD 250435Z AUTO 24004KT 10SM SCT046 M03/M08 A3011 RMK AO2 T10291078
KGCD 250415Z AUTO 24003KT 10SM SCT046 M03/M08 A3011 RMK AO2 T10281077
KGCD 250355Z AUTO 24004KT 10SM SCT044 SCT050 M03/M07 A3010 RMK AO2 T10271075
KGCD 250335Z AUTO 25005KT 10SM SCT044 M03/M07 A3010 RMK AO2 T10281073
KGCD 250315Z AUTO 22004KT 10SM CLR M03/M08 A3010 RMK AO2 T10321079
KGCD 250255Z AUTO 25003KT 10SM CLR M03/M08 A3009 RMK AO2 T10271081
KGCD 250235Z AUTO 30007KT 10SM SCT034 SCT048 SCT060 M01/M07 A3008 RMK AO2 T10141075
KGCD 250215Z AUTO 26004KT 10SM SCT050 SCT055 SCT070 M02/M08 A3007 RMK AO2 T10181081
KGCD 250155Z AUTO 23003KT 10SM SCT050 SCT065 BKN085 M02/M09 A3006 RMK AO2 T10191087
KGCD 250135Z AUTO 28007KT 10SM SCT050 SCT065 M01/M09 A3006 RMK AO2 T10131093
KGCD 250115Z AUTO 28010G18KT 10SM SCT050 00/M09 A3005 RMK AO2 T10051094
KGCD 250055Z AUTO 29012G17KT 10SM SCT055 00/M08 A3004 RMK AO2 T00001085
KGCD 250035Z AUTO 28009KT 10SM CLR M01/M07 A3004 RMK AO2 T10061073
KGCD 250015Z AUTO 28013KT 10SM SCT008 SCT017 SCT034 M01/M07 A3002 RMK AO2 T10101066
KGCD 242355Z AUTO 29010G22KT 3SM -SN SCT007 SCT017 BKN043 M01/M05 A3002 RMK AO2 60001 T10061051 10018 21016
KGCD 242335Z AUTO 28011KT 10SM CLR 00/M05 A3001 RMK AO2 T10051048
KGCD 242315Z AUTO 30008KT 5SM -SN SCT010 SCT018 BKN028 M01/M04 A3001 RMK AO2 T10151045
KGCD 242255Z AUTO 29007KT 7SM -SN SCT005 BKN024 OVC045 M01/M04 A3000 RMK AO2 T10101040
KGCD 242235Z AUTO 29016G27KT 1 1/4SM -SN SCT004 BKN017 OVC043 M01/M04 A2999 RMK AO2 T10151040
KGCD 242215Z AUTO 29011KT 7SM SCT010 SCT021 BKN042 00/M06 A2996 RMK AO2 T00001065
KGCD 242155Z AUTO 30012G21KT 5SM -SN SCT015 SCT024 BKN034 M01/M06 A2995 RMK AO2 P0001 T10061063
KGCD 242135Z AUTO 30014G30KT 10SM SCT024 BKN038 OVC060 00/M08 A2994 RMK AO2 P0001 T00021077
KGCD 242115Z AUTO 27021G27KT 10SM SCT040 SCT050 BKN060 01/M06 A2993 RMK AO2 T00091059
KGCD 242055Z AUTO 26019G26KT 10SM SCT044 SCT055 BKN065 02/M05 A2992 RMK AO2 T00181049
KGCD 242035Z AUTO 27012G22KT 10SM SCT046 BKN060 BKN075 01/M05 A2992 RMK AO2 T00111047
KGCD 242015Z AUTO 28019G23KT 10SM SCT038 SCT048 SCT060 02/M04 A2992 RMK AO2 T00161037
KGCD 241955Z AUTO 26017G22KT 10SM SCT011 SCT020 BKN038 00/M03 A2992 RMK AO2 T00001027
KGCD 241935Z AUTO 28015G20KT 7SM -SN SCT011 BKN028 OVC035 00/M02 A2992 RMK AO2 T10011024
KGCD 241915Z AUTO 26009KT 5SM BR BKN005 BKN021 OVC037 00/M02 A2991 RMK AO2 T10051023
KGCD 241855Z AUTO 28011G17KT 3/4SM -SN OVC005 M01/M02 A2992 RMK AO2 T10111024
KGCD 241835Z AUTO 27015G24KT 1SM -SN BKN003 OVC007 M01/M02 A2990 RMK AO2 T10131024
KGCD 241815Z AUTO 25016G20KT 5SM -SN BKN007 OVC011 M01/M03 A2988 RMK AO2 T10131027
KGCD 241755Z AUTO 24019G24KT 1 3/4SM -SN BKN004 BKN011 OVC019 M01/M02 A2988 RMK AO2 60002 T10131025 11003 21041
KGCD 241735Z AUTO 29007KT 7SM -SN SCT008 BKN021 OVC034 M02/M03 A2988 RMK AO2 T10181031
KGCD 241715Z AUTO 00000KT 10SM SCT030 SCT035 BKN040 00/M03 A2987 RMK AO2 T10051027
KGCD 241655Z AUTO 00000KT 10SM SCT060 M02/M03 A2988 RMK AO2 P0002 T10191032
KGCD 241635Z AUTO 00000KT 7SM -SN SCT004 SCT019 BKN028 M02/M03 A2988 RMK AO2 P0002 T10221032
KGCD 241615Z AUTO 21003KT 1/2SM SN OVC004 M02/M03 A2990 RMK AO2 P0001 T10221031
KGCD 241555Z AUTO 29003KT 1/2SM SN OVC004 M02/M04 A2991 RMK AO2 T10241037
KGCD 241535Z AUTO 19009G16KT 2 1/2SM -SN SCT007 BKN012 OVC022 M01/M04 A2989 RMK AO2 T10141042
KGCD 241515Z AUTO 18013G17KT 1 1/2SM -SN SCT005 BKN009 OVC013 M02/M04 A2989 RMK AO2 T10161043
KGCD 241455Z AUTO 19011G18KT 4SM -SN SCT013 SCT018 OVC026 M01/M05 A2990 RMK AO2 T10131047
KGCD 241435Z AUTO 13007G16KT 7SM -SN BKN027 OVC035 M02/M05 A2991 RMK AO2 T10191049
KGCD 241415Z AUTO 00000KT 5SM -SN SCT027 BKN036 OVC042 M03/M05 A2992 RMK AO2 T10281053
KGCD 241355Z AUTO 07004KT 10SM SCT023 BKN036 OVC043 M04/M06 A2992 RMK AO2 T10391064
KGCD 241335Z AUTO 22006KT 10SM SCT023 BKN038 OVC045 M03/M07 A2994 RMK AO2 T10321066
KGCD 241315Z AUTO 09003KT 7SM -SN SCT023 BKN036 OVC060 M04/M07 A2995 RMK AO2 T10411071
KGCD 241255Z AUTO 11004G16KT 10SM SCT035 BKN060 OVC080 M02/M07 A2996 RMK AO2 T10181068
KGCD 241235Z AUTO 17010G14KT 10SM BKN033 BKN050 OVC070 M02/M07 A2999 RMK AO2 T10221067
KGCD 241215Z AUTO 12005KT 10SM SCT033 OVC060 M04/M07 A3000 RMK AO2 T10381071
KGCD 241155Z AUTO 09007KT 10SM OVC060 M04/M07 A3001 RMK AO2 T10381071 11020 21048
KGCD 241135Z AUTO 10006KT 10SM SCT047 BKN060 M04/M07 A3003 RMK AO2 T10391072
KGCD 241115Z AUTO 11005KT 10SM BKN047 BKN060 M04/M07 A3004 RMK AO2 T10421072
KGCD 241055Z AUTO 11004KT 10SM SCT042 BKN050 OVC055 M04/M07 A3005 RMK AO2 T10441075
KGCD 241035Z AUTO 16009G16KT 10SM SCT042 BKN065 M02/M08 A3006 RMK AO2 T10201076
KGCD 241015Z AUTO 17010KT 10SM SCT039 BKN065 M02/M08 A3007 RMK AO2 T10231079
KGCD 240955Z AUTO 17012G19KT 10SM SCT039 BKN065 M02/M08 A3008 RMK AO2 T10251080
KGCD 240935Z AUTO 18012G16KT 10SM BKN039 BKN065 M02/M08 A3010 RMK AO2 T10251079
KGCD 240915Z AUTO 19010KT 10SM OVC037 M03/M08 A3010 RMK AO2 T10261078
KGCD 240855Z AUTO 16004KT 10SM OVC035 M03/M07 A3011 RMK AO2 T10331074
KGCD 240835Z AUTO 00000KT 10SM BKN033 BKN060 M04/M07 A3012 RMK AO2 T10441071
KGCD 240815Z AUTO 00000KT 10SM BKN033 BKN039 OVC070 M05/M07 A3013 RMK AO2 T10481072
KGCD 240755Z AUTO 00000KT 10SM SCT038 SCT050 BKN070 M05/M07 A3014 RMK AO2 T10461071 410201126
KGCD 240735Z AUTO 00000KT 10SM SCT050 BKN070 M05/M07 A3014 RMK AO2 T10471071
KGCD 240715Z AUTO 07004KT 10SM OVC070 M05/M07 A3016 RMK AO2 T10461071
KGCD 240655Z AUTO 07005KT 10SM BKN070 M05/M07 A3016 RMK AO2 T10461070
KGCD 240635Z AUTO 08003KT 10SM SCT034 BKN070 M05/M07 A3017 RMK AO2 T10481072
KGCD 240615Z AUTO 08003KT 10SM OVC034 M04/M07 A3017 RMK AO2 T10441073
KGCD 240555Z AUTO 05004KT 10SM BKN034 BKN070 M04/M07 A3018 RMK AO2 T10441071 11020 21045